Terminal Aerodrome Forecast
Issued by NWS

Home | Current Version | Previous Version | Text Only | Print | Product List | Glossary On
Versions: 1 2 3 4 5 6 7 8 9 10 11 12 13 14
000
FTAK31 PAJN 042322
TAFAJN
TAF
PAJN 042322Z 0500/0524 24008KT P6SM BKN100 BKN200
     FM050400 VRB04KT P6SM SCT040 BKN080
     FM050900 VRB03KT P6SM SCT025 BKN050
     FM051500 11006KT P6SM VCSH OVC050
     FM052100 12008KT P6SM -SHRA OVC035=

USA.gov is the U.S. government's official web portal to all federal, state and local government web resources and services.